sensor_id;sensor_type;location;lat;lon;timestamp;pressure;altitude;pressure_sealevel;temperature;humidity
76156;BME280;64906;51.290;7.348;2023-10-31T00:02:23;96701.81;;;20.34;52.95
76156;BME280;64906;51.290;7.348;2023-10-31T00:04:48;96709.22;;;20.34;52.86
76156;BME280;64906;51.290;7.348;2023-10-31T00:07:13;96699.75;;;20.31;52.69
76156;BME280;64906;51.290;7.348;2023-10-31T00:09:39;96707.38;;;20.26;52.89
76156;BME280;64906;51.290;7.348;2023-10-31T00:12:05;96728.63;;;20.29;52.76
76156;BME280;64906;51.290;7.348;2023-10-31T00:14:30;96729.78;;;20.28;52.79
76156;BME280;64906;51.290;7.348;2023-10-31T00:16:55;96725.06;;;20.28;52.78
76156;BME280;64906;51.290;7.348;2023-10-31T00:19:20;96756.03;;;20.29;52.91
76156;BME280;64906;51.290;7.348;2023-10-31T00:21:46;96760.69;;;20.28;52.90
76156;BME280;64906;51.290;7.348;2023-10-31T00:24:11;96748.16;;;20.27;52.86
76156;BME280;64906;51.290;7.348;2023-10-31T00:26:37;96760.25;;;20.26;53.20
76156;BME280;64906;51.290;7.348;2023-10-31T00:29:03;96761.38;;;20.25;52.69
76156;BME280;64906;51.290;7.348;2023-10-31T00:31:28;96759.44;;;20.26;52.86
76156;BME280;64906;51.290;7.348;2023-10-31T00:33:53;96755.44;;;20.23;53.15
76156;BME280;64906;51.290;7.348;2023-10-31T00:36:18;96773.84;;;20.23;53.17
76156;BME280;64906;51.290;7.348;2023-10-31T00:38:44;96769.94;;;20.24;53.11
76156;BME280;64906;51.290;7.348;2023-10-31T00:41:09;96769.69;;;20.17;52.88
76156;BME280;64906;51.290;7.348;2023-10-31T00:43:34;96765.94;;;20.21;53.34
76156;BME280;64906;51.290;7.348;2023-10-31T00:46:02;96771.78;;;20.20;53.24
76156;BME280;64906;51.290;7.348;2023-10-31T00:48:27;96768.69;;;20.21;52.68
76156;BME280;64906;51.290;7.348;2023-10-31T00:50:52;96781.59;;;20.21;52.87
76156;BME280;64906;51.290;7.348;2023-10-31T00:53:18;96777.47;;;20.15;52.85
76156;BME280;64906;51.290;7.348;2023-10-31T00:55:43;96782.72;;;20.20;52.91
76156;BME280;64906;51.290;7.348;2023-10-31T00:58:09;96806.75;;;20.14;52.99
76156;BME280;64906;51.290;7.348;2023-10-31T01:00:35;96788.88;;;20.17;52.98
76156;BME280;64906;51.290;7.348;2023-10-31T01:03:02;96786.31;;;20.12;52.97
76156;BME280;64906;51.290;7.348;2023-10-31T01:05:28;96798.53;;;20.14;53.02
76156;BME280;64906;51.290;7.348;2023-10-31T01:07:54;96788.72;;;20.13;53.20
76156;BME280;64906;51.290;7.348;2023-10-31T01:10:19;96817.72;;;20.14;53.23
76156;BME280;64906;51.290;7.348;2023-10-31T01:12:45;96809.38;;;20.11;53.00
76156;BME280;64906;51.290;7.348;2023-10-31T01:15:10;96819.97;;;20.12;53.25
76156;BME280;64906;51.290;7.348;2023-10-31T01:17:35;96827.41;;;20.12;53.06
76156;BME280;64906;51.290;7.348;2023-10-31T01:20:01;96834.03;;;20.11;53.06
76156;BME280;64906;51.290;7.348;2023-10-31T01:22:27;96830.47;;;20.10;53.16
76156;BME280;64906;51.290;7.348;2023-10-31T01:24:52;96845.78;;;20.11;53.02
76156;BME280;64906;51.290;7.348;2023-10-31T01:27:17;96842.91;;;20.08;53.21
76156;BME280;64906;51.290;7.348;2023-10-31T01:29:42;96830.38;;;20.07;53.03
76156;BME280;64906;51.290;7.348;2023-10-31T01:32:08;96837.16;;;20.00;53.02
76156;BME280;64906;51.290;7.348;2023-10-31T01:34:33;96842.44;;;20.05;53.07
76156;BME280;64906;51.290;7.348;2023-10-31T01:36:58;96836.06;;;20.01;53.11
76156;BME280;64906;51.290;7.348;2023-10-31T01:39:24;96852.94;;;20.03;53.20
76156;BME280;64906;51.290;7.348;2023-10-31T01:41:49;96861.97;;;20.04;53.32
76156;BME280;64906;51.290;7.348;2023-10-31T01:44:14;96854.06;;;20.02;53.33
76156;BME280;64906;51.290;7.348;2023-10-31T01:46:39;96865.03;;;20.02;52.98
76156;BME280;64906;51.290;7.348;2023-10-31T01:49:05;96868.91;;;20.01;53.26
76156;BME280;64906;51.290;7.348;2023-10-31T01:51:30;96864.69;;;20.04;53.05
76156;BME280;64906;51.290;7.348;2023-10-31T01:53:56;96876.47;;;20.04;53.25
76156;BME280;64906;51.290;7.348;2023-10-31T01:56:22;96874.06;;;20.03;52.91
76156;BME280;64906;51.290;7.348;2023-10-31T01:58:48;96866.97;;;20.02;53.18
76156;BME280;64906;51.290;7.348;2023-10-31T02:01:14;96879.06;;;20.01;53.00
76156;BME280;64906;51.290;7.348;2023-10-31T02:03:39;96871.03;;;19.96;53.20
76156;BME280;64906;51.290;7.348;2023-10-31T02:06:05;96871.84;;;19.96;53.26
76156;BME280;64906;51.290;7.348;2023-10-31T02:08:30;96866.72;;;19.95;53.10
76156;BME280;64906;51.290;7.348;2023-10-31T02:10:56;96867.97;;;19.97;53.26
76156;BME280;64906;51.290;7.348;2023-10-31T02:13:21;96869.56;;;19.98;53.14
76156;BME280;64906;51.290;7.348;2023-10-31T02:15:47;96868.78;;;19.98;53.05
76156;BME280;64906;51.290;7.348;2023-10-31T02:18:12;96864.75;;;19.95;53.09
76156;BME280;64906;51.290;7.348;2023-10-31T02:20:38;96860.44;;;19.94;53.02
76156;BME280;64906;51.290;7.348;2023-10-31T02:23:04;96868.66;;;19.94;53.04
76156;BME280;64906;51.290;7.348;2023-10-31T02:25:29;96862.34;;;19.94;53.09
76156;BME280;64906;51.290;7.348;2023-10-31T02:27:55;96871.38;;;19.94;53.00
76156;BME280;64906;51.290;7.348;2023-10-31T02:30:20;96863.50;;;19.93;53.16
76156;BME280;64906;51.290;7.348;2023-10-31T02:32:46;96869.78;;;19.93;53.45
76156;BME280;64906;51.290;7.348;2023-10-31T02:35:11;96866.72;;;19.95;53.31
76156;BME280;64906;51.290;7.348;2023-10-31T02:37:37;96874.47;;;19.93;53.27
76156;BME280;64906;51.290;7.348;2023-10-31T02:40:02;96875.91;;;19.90;53.15
76156;BME280;64906;51.290;7.348;2023-10-31T02:42:28;96866.59;;;19.91;53.18
76156;BME280;64906;51.290;7.348;2023-10-31T02:44:53;96871.59;;;19.89;53.24
76156;BME280;64906;51.290;7.348;2023-10-31T02:47:19;96870.44;;;19.90;53.39
76156;BME280;64906;51.290;7.348;2023-10-31T02:49:44;96880.63;;;19.90;53.39
76156;BME280;64906;51.290;7.348;2023-10-31T02:52:09;96879.81;;;19.89;53.45
76156;BME280;64906;51.290;7.348;2023-10-31T02:54:35;96879.00;;;19.89;53.08
76156;BME280;64906;51.290;7.348;2023-10-31T02:57:00;96880.47;;;19.86;53.28
76156;BME280;64906;51.290;7.348;2023-10-31T02:59:25;96874.84;;;19.83;53.35
76156;BME280;64906;51.290;7.348;2023-10-31T03:01:52;96884.31;;;19.85;53.45
76156;BME280;64906;51.290;7.348;2023-10-31T03:04:17;96875.81;;;19.87;53.07
76156;BME280;64906;51.290;7.348;2023-10-31T03:06:43;96881.28;;;19.87;53.28
76156;BME280;64906;51.290;7.348;2023-10-31T03:09:08;96883.88;;;19.83;53.42
76156;BME280;64906;51.290;7.348;2023-10-31T03:11:33;96889.81;;;19.85;53.26
76156;BME280;64906;51.290;7.348;2023-10-31T03:13:58;96890.47;;;19.82;53.50
76156;BME280;64906;51.290;7.348;2023-10-31T03:16:24;96886.28;;;19.85;53.14
76156;BME280;64906;51.290;7.348;2023-10-31T03:18:50;96881.47;;;19.82;53.08
76156;BME280;64906;51.290;7.348;2023-10-31T03:21:15;96887.25;;;19.80;53.49
76156;BME280;64906;51.290;7.348;2023-10-31T03:23:42;96897.91;;;19.82;53.48
76156;BME280;64906;51.290;7.348;2023-10-31T03:26:07;96893.88;;;19.79;53.00
76156;BME280;64906;51.290;7.348;2023-10-31T03:28:33;96896.28;;;19.81;53.37
76156;BME280;64906;51.290;7.348;2023-10-31T03:30:58;96890.00;;;19.80;53.31
76156;BME280;64906;51.290;7.348;2023-10-31T03:33:23;96902.56;;;19.81;53.53
76156;BME280;64906;51.290;7.348;2023-10-31T03:35:49;96900.16;;;19.80;53.39
76156;BME280;64906;51.290;7.348;2023-10-31T03:38:14;96901.75;;;19.81;53.43
76156;BME280;64906;51.290;7.348;2023-10-31T03:40:39;96896.47;;;19.76;53.52
76156;BME280;64906;51.290;7.348;2023-10-31T03:43:04;96901.28;;;19.79;53.08
76156;BME280;64906;51.290;7.348;2023-10-31T03:45:30;96907.91;;;19.78;53.58
76156;BME280;64906;51.290;7.348;2023-10-31T03:47:55;96900.50;;;19.78;53.56
76156;BME280;64906;51.290;7.348;2023-10-31T03:50:21;96911.47;;;19.78;53.37
76156;BME280;64906;51.290;7.348;2023-10-31T03:52:46;96906.75;;;19.79;53.47
76156;BME280;64906;51.290;7.348;2023-10-31T03:55:11;96917.59;;;19.75;53.51
76156;BME280;64906;51.290;7.348;2023-10-31T03:57:37;96917.59;;;19.75;53.38
76156;BME280;64906;51.290;7.348;2023-10-31T04:00:02;96914.19;;;19.78;53.12
76156;BME280;64906;51.290;7.348;2023-10-31T04:02:30;96922.75;;;19.77;53.61
76156;BME280;64906;51.290;7.348;2023-10-31T04:04:55;96912.31;;;19.70;53.13
76156;BME280;64906;51.290;7.348;2023-10-31T04:07:20;96923.88;;;19.76;53.43
76156;BME280;64906;51.290;7.348;2023-10-31T04:09:46;96926.47;;;19.72;53.21
76156;BME280;64906;51.290;7.348;2023-10-31T04:12:11;96924.38;;;19.69;53.60
76156;BME280;64906;51.290;7.348;2023-10-31T04:14:38;96919.88;;;19.73;53.23
76156;BME280;64906;51.290;7.348;2023-10-31T04:17:04;96928.06;;;19.73;53.40
76156;BME280;64906;51.290;7.348;2023-10-31T04:19:29;96928.75;;;19.70;53.51
76156;BME280;64906;51.290;7.348;2023-10-31T04:21:54;96935.16;;;19.74;53.47
76156;BME280;64906;51.290;7.348;2023-10-31T04:24:19;96921.13;;;19.76;53.17
76156;BME280;64906;51.290;7.348;2023-10-31T04:26:45;96925.47;;;19.77;53.30
76156;BME280;64906;51.290;7.348;2023-10-31T04:29:10;96927.41;;;19.76;53.23
76156;BME280;64906;51.290;7.348;2023-10-31T04:31:36;96923.66;;;19.81;53.56
76156;BME280;64906;51.290;7.348;2023-10-31T04:34:01;96931.41;;;19.79;53.24
76156;BME280;64906;51.290;7.348;2023-10-31T04:36:26;96923.53;;;19.77;53.35
76156;BME280;64906;51.290;7.348;2023-10-31T04:38:51;96935.09;;;19.83;53.16
76156;BME280;64906;51.290;7.348;2023-10-31T04:41:17;96934.97;;;19.79;53.27
76156;BME280;64906;51.290;7.348;2023-10-31T04:43:42;96934.28;;;19.82;53.55
76156;BME280;64906;51.290;7.348;2023-10-31T04:46:07;96935.56;;;19.85;53.25
76156;BME280;64906;51.290;7.348;2023-10-31T04:48:33;96930.44;;;19.83;53.45
76156;BME280;64906;51.290;7.348;2023-10-31T04:50:58;96941.19;;;19.88;53.73
76156;BME280;64906;51.290;7.348;2023-10-31T04:53:24;96945.19;;;19.91;53.58
76156;BME280;64906;51.290;7.348;2023-10-31T04:55:49;96942.44;;;19.91;53.30
76156;BME280;64906;51.290;7.348;2023-10-31T04:58:14;96946.34;;;19.90;53.38
76156;BME280;64906;51.290;7.348;2023-10-31T05:00:40;96948.75;;;19.91;53.77
76156;BME280;64906;51.290;7.348;2023-10-31T05:03:06;96949.06;;;19.90;53.76
76156;BME280;64906;51.290;7.348;2023-10-31T05:05:31;96950.81;;;19.94;53.72
76156;BME280;64906;51.290;7.348;2023-10-31T05:07:57;96946.00;;;19.91;53.69
76156;BME280;64906;51.290;7.348;2023-10-31T05:10:23;96948.75;;;19.91;53.61
76156;BME280;64906;51.290;7.348;2023-10-31T05:12:48;96955.13;;;19.95;54.08
76156;BME280;64906;51.290;7.348;2023-10-31T05:15:14;96959.16;;;19.98;54.14
76156;BME280;64906;51.290;7.348;2023-10-31T05:17:39;96962.69;;;19.98;54.09
76156;BME280;64906;51.290;7.348;2023-10-31T05:20:05;96954.94;;;20.00;53.83
76156;BME280;64906;51.290;7.348;2023-10-31T05:22:30;96954.94;;;20.00;54.10
76156;BME280;64906;51.290;7.348;2023-10-31T05:24:55;96955.91;;;20.04;54.29
76156;BME280;64906;51.290;7.348;2023-10-31T05:27:21;96961.38;;;20.04;54.11
76156;BME280;64906;51.290;7.348;2023-10-31T05:29:46;96966.19;;;20.08;54.13
76156;BME280;64906;51.290;7.348;2023-10-31T05:32:11;96959.56;;;20.08;54.33
76156;BME280;64906;51.290;7.348;2023-10-31T05:34:36;96968.25;;;20.11;54.00
76156;BME280;64906;51.290;7.348;2023-10-31T05:37:02;96973.38;;;20.12;54.14
76156;BME280;64906;51.290;7.348;2023-10-31T05:39:27;96978.53;;;20.14;53.89
76156;BME280;64906;51.290;7.348;2023-10-31T05:41:52;96976.94;;;20.13;54.02
76156;BME280;64906;51.290;7.348;2023-10-31T05:44:17;96988.22;;;20.20;54.03
76156;BME280;64906;51.290;7.348;2023-10-31T05:46:43;96994.94;;;20.22;54.54
76156;BME280;64906;51.290;7.348;2023-10-31T05:49:09;96987.88;;;20.21;53.90
76156;BME280;64906;51.290;7.348;2023-10-31T05:51:35;96996.53;;;20.23;54.23
76156;BME280;64906;51.290;7.348;2023-10-31T05:54:01;96995.09;;;20.26;54.24
76156;BME280;64906;51.290;7.348;2023-10-31T05:56:26;96996.22;;;20.25;54.13
76156;BME280;64906;51.290;7.348;2023-10-31T05:58:51;96996.22;;;20.25;54.31
76156;BME280;64906;51.290;7.348;2023-10-31T06:01:17;97007.63;;;20.27;54.43
76156;BME280;64906;51.290;7.348;2023-10-31T06:03:43;97017.94;;;20.30;54.48
76156;BME280;64906;51.290;7.348;2023-10-31T06:06:09;97017.63;;;20.31;54.11
76156;BME280;64906;51.290;7.348;2023-10-31T06:08:35;97016.47;;;20.32;54.24
76156;BME280;64906;51.290;7.348;2023-10-31T06:11:00;97026.63;;;20.32;54.47
76156;BME280;64906;51.290;7.348;2023-10-31T06:13:26;97046.44;;;20.37;54.51
76156;BME280;64906;51.290;7.348;2023-10-31T06:15:54;97046.44;;;20.37;54.57
76156;BME280;64906;51.290;7.348;2023-10-31T06:18:19;97064.47;;;20.38;54.57
76156;BME280;64906;51.290;7.348;2023-10-31T06:20:45;97078.63;;;20.40;54.48
76156;BME280;64906;51.290;7.348;2023-10-31T06:23:10;97076.84;;;20.44;54.75
76156;BME280;64906;51.290;7.348;2023-10-31T06:25:35;97088.59;;;20.45;54.72
76156;BME280;64906;51.290;7.348;2023-10-31T06:28:01;97085.06;;;20.44;54.32
76156;BME280;64906;51.290;7.348;2023-10-31T06:30:26;97091.81;;;20.47;54.64
76156;BME280;64906;51.290;7.348;2023-10-31T06:32:52;97100.03;;;20.47;54.21
76156;BME280;64906;51.290;7.348;2023-10-31T06:35:18;97102.78;;;20.47;54.34
76156;BME280;64906;51.290;7.348;2023-10-31T06:37:43;97105.66;;;20.50;54.65
76156;BME280;64906;51.290;7.348;2023-10-31T06:40:09;97102.44;;;20.48;54.65
76156;BME280;64906;51.290;7.348;2023-10-31T06:42:35;97116.28;;;20.52;54.37
76156;BME280;64906;51.290;7.348;2023-10-31T06:45:00;97109.03;;;20.56;54.45
76156;BME280;64906;51.290;7.348;2023-10-31T06:47:26;97120.78;;;20.56;54.46
76156;BME280;64906;51.290;7.348;2023-10-31T06:49:51;97109.47;;;20.58;54.86
76156;BME280;64906;51.290;7.348;2023-10-31T06:52:16;97109.03;;;20.56;54.58
76156;BME280;64906;51.290;7.348;2023-10-31T06:54:41;97116.72;;;20.62;54.54
76156;BME280;64906;51.290;7.348;2023-10-31T06:57:07;97117.84;;;20.61;54.82
76156;BME280;64906;51.290;7.348;2023-10-31T06:59:32;97116.56;;;20.59;54.61
76156;BME280;64906;51.290;7.348;2023-10-31T07:01:57;97115.56;;;20.63;54.59
76156;BME280;64906;51.290;7.348;2023-10-31T07:04:22;97112.00;;;20.63;54.49
76156;BME280;64906;51.290;7.348;2023-10-31T07:06:48;97125.53;;;20.68;54.86
76156;BME280;64906;51.290;7.348;2023-10-31T07:09:13;97125.19;;;20.69;54.86
76156;BME280;64906;51.290;7.348;2023-10-31T07:11:39;97129.22;;;20.72;54.65
76156;BME280;64906;51.290;7.348;2023-10-31T07:14:05;97129.66;;;20.74;54.46
76156;BME280;64906;51.290;7.348;2023-10-31T07:16:32;97135.63;;;20.76;54.37
76156;BME280;64906;51.290;7.348;2023-10-31T07:18:57;97142.06;;;20.80;54.45
76156;BME280;64906;51.290;7.348;2023-10-31T07:21:22;97137.25;;;20.77;54.34
76156;BME280;64906;51.290;7.348;2023-10-31T07:23:47;97135.44;;;20.81;54.38
76156;BME280;64906;51.290;7.348;2023-10-31T07:26:13;97135.28;;;20.77;54.80
76156;BME280;64906;51.290;7.348;2023-10-31T07:28:38;97138.66;;;20.83;54.43
76156;BME280;64906;51.290;7.348;2023-10-31T07:31:04;97144.63;;;20.85;54.43
76156;BME280;64906;51.290;7.348;2023-10-31T07:33:30;97144.63;;;20.85;54.48
76156;BME280;64906;51.290;7.348;2023-10-31T07:35:55;97135.09;;;20.82;54.41
76156;BME280;64906;51.290;7.348;2023-10-31T07:38:20;97145.06;;;20.87;54.62
76156;BME280;64906;51.290;7.348;2023-10-31T07:40:45;97152.66;;;20.90;54.56
76156;BME280;64906;51.290;7.348;2023-10-31T07:43:13;97148.75;;;20.91;54.95
76156;BME280;64906;51.290;7.348;2023-10-31T07:45:38;97146.00;;;20.91;54.49
76156;BME280;64906;51.290;7.348;2023-10-31T07:48:03;97152.44;;;20.95;54.61
76156;BME280;64906;51.290;7.348;2023-10-31T07:50:28;97152.94;;;20.97;54.54
76156;BME280;64906;51.290;7.348;2023-10-31T07:52:54;97155.19;;;20.95;54.74
76156;BME280;64906;51.290;7.348;2023-10-31T07:55:19;97152.59;;;20.98;54.62
76156;BME280;64906;51.290;7.348;2023-10-31T07:57:44;97150.66;;;20.99;54.79
76156;BME280;64906;51.290;7.348;2023-10-31T08:00:11;97150.78;;;21.02;54.33
76156;BME280;64906;51.290;7.348;2023-10-31T08:02:36;97151.47;;;20.99;54.75
76156;BME280;64906;51.290;7.348;2023-10-31T08:05:02;97163.03;;;21.05;54.81
76156;BME280;64906;51.290;7.348;2023-10-31T08:07:27;97170.13;;;21.06;54.37
76156;BME280;64906;51.290;7.348;2023-10-31T08:09:55;97169.81;;;21.07;54.70
76156;BME280;64906;51.290;7.348;2023-10-31T08:12:21;97175.75;;;21.09;54.71
76156;BME280;64906;51.290;7.348;2023-10-31T08:14:46;97179.28;;;21.10;54.44
76156;BME280;64906;51.290;7.348;2023-10-31T08:17:11;97185.38;;;21.15;54.22
76156;BME280;64906;51.290;7.348;2023-10-31T08:19:37;97186.97;;;21.16;54.62
76156;BME280;64906;51.290;7.348;2023-10-31T08:22:02;97175.56;;;21.14;54.59
76156;BME280;64906;51.290;7.348;2023-10-31T08:24:28;97186.19;;;21.16;54.60
76156;BME280;64906;51.290;7.348;2023-10-31T08:26:53;97192.13;;;21.18;54.22
76156;BME280;64906;51.290;7.348;2023-10-31T08:29:18;97193.63;;;21.15;54.64
76156;BME280;64906;51.290;7.348;2023-10-31T08:31:43;97203.94;;;21.18;54.63
76156;BME280;64906;51.290;7.348;2023-10-31T08:34:09;97193.16;;;21.13;54.73
76156;BME280;64906;51.290;7.348;2023-10-31T08:36:35;97206.00;;;21.21;54.61
76156;BME280;64906;51.290;7.348;2023-10-31T08:39:00;97188.94;;;21.16;54.67
76156;BME280;64906;51.290;7.348;2023-10-31T08:41:26;97218.25;;;21.24;54.86
76156;BME280;64906;51.290;7.348;2023-10-31T08:43:51;97213.56;;;21.24;54.65
76156;BME280;64906;51.290;7.348;2023-10-31T08:46:16;97215.19;;;21.25;54.62
76156;BME280;64906;51.290;7.348;2023-10-31T08:48:42;97215.19;;;21.25;54.52
76156;BME280;64906;51.290;7.348;2023-10-31T08:51:07;97225.00;;;21.26;54.62
76156;BME280;64906;51.290;7.348;2023-10-31T08:53:33;97219.50;;;21.26;54.44
76156;BME280;64906;51.290;7.348;2023-10-31T08:55:58;97227.41;;;21.28;54.45
76156;BME280;64906;51.290;7.348;2023-10-31T08:58:23;97230.28;;;21.31;54.16
76156;BME280;64906;51.290;7.348;2023-10-31T09:00:48;97234.66;;;21.33;54.12
76156;BME280;64906;51.290;7.348;2023-10-31T09:03:14;97235.25;;;21.38;54.18
76156;BME280;64906;51.290;7.348;2023-10-31T09:05:40;97239.63;;;21.39;53.77
76156;BME280;64906;51.290;7.348;2023-10-31T09:08:05;97236.97;;;21.43;54.12
76156;BME280;64906;51.290;7.348;2023-10-31T09:10:32;97226.34;;;21.41;53.58
76156;BME280;64906;51.290;7.348;2023-10-31T09:12:58;97231.63;;;21.46;53.78
76156;BME280;64906;51.290;7.348;2023-10-31T09:15:23;97242.81;;;21.41;53.76
76156;BME280;64906;51.290;7.348;2023-10-31T09:17:49;97255.34;;;21.51;53.47
76156;BME280;64906;51.290;7.348;2023-10-31T09:20:14;97252.28;;;21.52;53.66
76156;BME280;64906;51.290;7.348;2023-10-31T09:22:39;97255.34;;;21.51;53.71
76156;BME280;64906;51.290;7.348;2023-10-31T09:25:05;97258.88;;;21.51;53.48
76156;BME280;64906;51.290;7.348;2023-10-31T09:27:30;97268.06;;;21.55;53.50
76156;BME280;64906;51.290;7.348;2023-10-31T09:29:56;97270.47;;;21.57;53.43
76156;BME280;64906;51.290;7.348;2023-10-31T09:32:21;97279.06;;;21.55;53.44
76156;BME280;64906;51.290;7.348;2023-10-31T09:34:46;97281.78;;;21.55;53.13
76156;BME280;64906;51.290;7.348;2023-10-31T09:37:12;97277.09;;;21.56;53.08
76156;BME280;64906;51.290;7.348;2023-10-31T09:39:37;97283.72;;;21.55;53.08
76156;BME280;64906;51.290;7.348;2023-10-31T09:42:03;97287.44;;;21.59;53.13
76156;BME280;64906;51.290;7.348;2023-10-31T09:44:28;97295.00;;;21.62;53.52
76156;BME280;64906;51.290;7.348;2023-10-31T09:46:55;97295.91;;;21.66;53.50
76156;BME280;64906;51.290;7.348;2023-10-31T09:49:20;97303.03;;;21.67;52.92
76156;BME280;64906;51.290;7.348;2023-10-31T09:51:46;97310.78;;;21.65;52.98
76156;BME280;64906;51.290;7.348;2023-10-31T09:54:12;97321.91;;;21.68;52.79
76156;BME280;64906;51.290;7.348;2023-10-31T09:56:41;97317.22;;;21.69;53.02
76156;BME280;64906;51.290;7.348;2023-10-31T09:59:07;97323.03;;;21.67;52.77
76156;BME280;64906;51.290;7.348;2023-10-31T10:01:32;97333.56;;;21.65;53.30
76156;BME280;64906;51.290;7.348;2023-10-31T10:03:58;97336.75;;;21.67;52.71
76156;BME280;64906;51.290;7.348;2023-10-31T10:06:24;97342.94;;;21.64;52.81
76156;BME280;64906;51.290;7.348;2023-10-31T10:08:50;97341.00;;;21.65;53.07
76156;BME280;64906;51.290;7.348;2023-10-31T10:11:15;97353.56;;;21.66;52.92
76156;BME280;64906;51.290;7.348;2023-10-31T10:13:40;97354.88;;;21.68;52.81
76156;BME280;64906;51.290;7.348;2023-10-31T10:16:06;97357.13;;;21.66;53.04
76156;BME280;64906;51.290;7.348;2023-10-31T10:18:33;97349.25;;;21.65;52.96
76156;BME280;64906;51.290;7.348;2023-10-31T10:21:07;97352.31;;;21.63;52.56
76156;BME280;64906;51.290;7.348;2023-10-31T10:23:33;97357.00;;;21.63;52.72
76156;BME280;64906;51.290;7.348;2023-10-31T10:25:59;97359.28;;;21.61;52.87
76156;BME280;64906;51.290;7.348;2023-10-31T10:28:26;97358.47;;;21.60;52.67
76156;BME280;64906;51.290;7.348;2023-10-31T10:30:53;97359.94;;;21.58;52.50
76156;BME280;64906;51.290;7.348;2023-10-31T10:33:19;97377.72;;;21.60;53.09
76156;BME280;64906;51.290;7.348;2023-10-31T10:35:45;97381.38;;;21.64;52.86
76156;BME280;64906;51.290;7.348;2023-10-31T10:38:12;97391.09;;;21.62;52.62
76156;BME280;64906;51.290;7.348;2023-10-31T10:40:43;97385.28;;;21.63;52.66
76156;BME280;64906;51.290;7.348;2023-10-31T10:43:25;97380.91;;;21.62;52.53
76156;BME280;64906;51.290;7.348;2023-10-31T10:45:54;97394.13;;;21.69;52.81
76156;BME280;64906;51.290;7.348;2023-10-31T10:48:23;97390.09;;;21.66;52.83
76156;BME280;64906;51.290;7.348;2023-10-31T10:51:06;97385.41;;;21.67;52.42
76156;BME280;64906;51.290;7.348;2023-10-31T10:53:42;97386.41;;;21.62;52.47
76156;BME280;64906;51.290;7.348;2023-10-31T10:56:16;97394.63;;;21.62;52.78
76156;BME280;64906;51.290;7.348;2023-10-31T10:59:00;97387.53;;;21.61;52.83
76156;BME280;64906;51.290;7.348;2023-10-31T11:01:26;97398.88;;;21.60;52.81
76156;BME280;64906;51.290;7.348;2023-10-31T11:03:55;97401.94;;;21.87;51.98
76156;BME280;64906;51.290;7.348;2023-10-31T11:06:20;97406.38;;;21.80;52.20
76156;BME280;64906;51.290;7.348;2023-10-31T11:08:47;97394.72;;;21.74;52.17
76156;BME280;64906;51.290;7.348;2023-10-31T11:11:12;97403.78;;;21.75;52.10
76156;BME280;64906;51.290;7.348;2023-10-31T11:13:38;97399.56;;;21.77;52.57
76156;BME280;64906;51.290;7.348;2023-10-31T11:16:22;97407.16;;;21.80;52.07
76156;BME280;64906;51.290;7.348;2023-10-31T11:18:52;97409.91;;;21.80;52.33
76156;BME280;64906;51.290;7.348;2023-10-31T11:21:17;97410.22;;;21.79;52.18
76156;BME280;64906;51.290;7.348;2023-10-31T11:23:43;97409.78;;;21.77;52.64
76156;BME280;64906;51.290;7.348;2023-10-31T11:26:08;97406.69;;;21.78;52.34
76156;BME280;64906;51.290;7.348;2023-10-31T11:28:33;97409.59;;;21.82;52.19
76156;BME280;64906;51.290;7.348;2023-10-31T11:31:00;97413.59;;;21.84;52.13
76156;BME280;64906;51.290;7.348;2023-10-31T11:33:27;97413.59;;;21.84;52.36
76156;BME280;64906;51.290;7.348;2023-10-31T11:36:03;97409.25;;;21.83;52.13
76156;BME280;64906;51.290;7.348;2023-10-31T11:38:36;97408.09;;;21.84;51.76
76156;BME280;64906;51.290;7.348;2023-10-31T11:41:03;97410.50;;;21.86;52.17
76156;BME280;64906;51.290;7.348;2023-10-31T11:46:17;97420.16;;;21.92;51.62
76156;BME280;64906;51.290;7.348;2023-10-31T11:48:51;97424.88;;;21.91;51.60
76156;BME280;64906;51.290;7.348;2023-10-31T11:51:17;97426.94;;;21.94;51.66
76156;BME280;64906;51.290;7.348;2023-10-31T11:53:43;97427.00;;;21.86;51.14
76156;BME280;64906;51.290;7.348;2023-10-31T11:56:10;97426.78;;;21.91;51.22
76156;BME280;64906;51.290;7.348;2023-10-31T11:58:36;97437.94;;;21.94;51.19
76156;BME280;64906;51.290;7.348;2023-10-31T12:01:03;97437.44;;;21.92;50.93
76156;BME280;64906;51.290;7.348;2023-10-31T12:03:36;97439.88;;;21.94;51.32
76156;BME280;64906;51.290;7.348;2023-10-31T12:06:02;97432.44;;;21.94;51.17
76156;BME280;64906;51.290;7.348;2023-10-31T12:08:36;97434.69;;;21.92;51.06
76156;BME280;64906;51.290;7.348;2023-10-31T12:11:04;97439.53;;;21.95;50.91
76156;BME280;64906;51.290;7.348;2023-10-31T12:13:29;97439.38;;;21.92;51.15
76156;BME280;64906;51.290;7.348;2023-10-31T12:15:54;97438.75;;;21.95;51.40
76156;BME280;64906;51.290;7.348;2023-10-31T12:18:20;97443.91;;;21.96;51.32
76156;BME280;64906;51.290;7.348;2023-10-31T12:20:49;97440.19;;;21.92;51.31
76156;BME280;64906;51.290;7.348;2023-10-31T12:23:15;97448.09;;;21.94;51.48
76156;BME280;64906;51.290;7.348;2023-10-31T12:25:51;97442.13;;;21.92;51.05
76156;BME280;64906;51.290;7.348;2023-10-31T12:28:21;97452.69;;;21.90;51.36
76156;BME280;64906;51.290;7.348;2023-10-31T12:30:48;97444.88;;;21.92;51.15
76156;BME280;64906;51.290;7.348;2023-10-31T12:33:14;97443.13;;;21.87;51.53
76156;BME280;64906;51.290;7.348;2023-10-31T12:35:40;97435.25;;;21.86;51.47
76156;BME280;64906;51.290;7.348;2023-10-31T12:38:07;97447.28;;;21.93;51.00
76156;BME280;64906;51.290;7.348;2023-10-31T12:40:34;97451.66;;;21.94;51.46
76156;BME280;64906;51.290;7.348;2023-10-31T12:43:00;97445.03;;;21.95;51.23
76156;BME280;64906;51.290;7.348;2023-10-31T12:45:27;97450.84;;;21.94;50.92
76156;BME280;64906;51.290;7.348;2023-10-31T12:48:05;97446.19;;;21.94;51.31
76156;BME280;64906;51.290;7.348;2023-10-31T12:50:32;97449.59;;;21.91;51.17
76156;BME280;64906;51.290;7.348;2023-10-31T12:52:59;97446.84;;;21.91;51.30
76156;BME280;64906;51.290;7.348;2023-10-31T12:55:27;97448.78;;;21.91;51.07
76156;BME280;64906;51.290;7.348;2023-10-31T12:57:53;97449.59;;;21.91;50.88